createdAt,value
2023-05-07T00:01:23.792Z,15.68
2023-05-07T00:03:50.754Z,15.51
2023-05-07T00:06:18.212Z,15.23
2023-05-07T00:08:44.916Z,15.63
2023-05-07T00:11:11.639Z,15.50
2023-05-07T00:13:38.290Z,15.72
2023-05-07T00:16:05.817Z,15.51
2023-05-07T00:18:32.497Z,15.74
2023-05-07T00:20:59.268Z,15.90
2023-05-07T00:23:25.863Z,15.74
2023-05-07T00:25:52.573Z,14.73
2023-05-07T00:28:19.186Z,13.87
2023-05-07T00:30:45.848Z,14.26
2023-05-07T00:33:12.573Z,14.34
2023-05-07T00:35:39.468Z,14.11
2023-05-07T00:38:06.123Z,13.88
2023-05-07T00:40:34.006Z,14.39
2023-05-07T00:43:01.021Z,14.73
2023-05-07T00:45:29.487Z,15.07
2023-05-07T00:48:02.153Z,14.90
2023-05-07T00:50:29.656Z,14.76
2023-05-07T00:52:56.816Z,14.77
2023-05-07T00:55:24.870Z,14.98
2023-05-07T00:57:52.295Z,14.59
2023-05-07T01:00:19.656Z,14.10
2023-05-07T01:02:47.735Z,13.29
2023-05-07T01:05:18.485Z,13.21
2023-05-07T01:07:46.643Z,13.22
2023-05-07T01:10:13.990Z,13.78
2023-05-07T01:12:41.656Z,14.12
2023-05-07T01:15:10.514Z,14.06
2023-05-07T01:17:38.976Z,13.79
2023-05-07T01:20:08.366Z,14.21
2023-05-07T01:22:37.697Z,14.41
2023-05-07T01:25:05.591Z,14.25
2023-05-07T01:27:34.255Z,14.15
2023-05-07T01:30:00.999Z,14.16
2023-05-07T01:32:36.947Z,14.28
2023-05-07T01:35:06.277Z,14.60
2023-05-07T01:37:33.817Z,14.67
2023-05-07T01:40:02.137Z,14.60
2023-05-07T01:42:30.306Z,14.59
2023-05-07T01:44:57.400Z,14.71
2023-05-07T01:47:25.219Z,14.47
2023-05-07T01:49:52.044Z,13.78
2023-05-07T01:52:18.808Z,13.32
2023-05-07T01:54:45.680Z,13.04
2023-05-07T01:57:12.364Z,13.31
2023-05-07T01:59:39.040Z,13.47
2023-05-07T02:02:05.934Z,13.31
2023-05-07T02:04:32.577Z,12.95
2023-05-07T02:06:59.208Z,13.10
2023-05-07T02:09:25.851Z,12.71
2023-05-07T02:11:52.433Z,13.35
2023-05-07T02:14:19.227Z,13.55
2023-05-07T02:16:45.994Z,13.40
2023-05-07T02:19:12.788Z,13.55
2023-05-07T02:21:39.404Z,13.85
2023-05-07T02:24:06.284Z,14.18
2023-05-07T02:26:33.073Z,14.04
2023-05-07T02:28:59.641Z,13.83
2023-05-07T02:31:26.316Z,13.42
2023-05-07T02:33:52.946Z,13.07
2023-05-07T02:36:19.610Z,13.17
2023-05-07T02:38:46.243Z,13.04
2023-05-07T02:41:12.856Z,12.46
2023-05-07T02:43:39.492Z,12.59
2023-05-07T02:46:08.205Z,13.02
2023-05-07T02:48:35.471Z,13.32
2023-05-07T02:51:03.334Z,13.29
2023-05-07T02:53:30.521Z,12.86
2023-05-07T02:55:58.473Z,13.32
2023-05-07T02:58:25.600Z,13.38
2023-05-07T03:00:52.504Z,13.31
2023-05-07T03:03:19.299Z,13.30
2023-05-07T03:05:45.917Z,12.93
2023-05-07T03:08:12.669Z,12.52
2023-05-07T03:10:39.385Z,12.68
2023-05-07T03:13:06.441Z,13.35
2023-05-07T03:15:33.128Z,13.47
2023-05-07T03:17:59.997Z,13.54
2023-05-07T03:20:26.728Z,13.58
2023-05-07T03:22:53.433Z,13.44
2023-05-07T03:25:20.252Z,13.71
2023-05-07T03:27:46.856Z,13.96
2023-05-07T03:30:13.862Z,13.53
2023-05-07T03:32:40.792Z,13.49
2023-05-07T03:35:08.186Z,13.42
2023-05-07T03:37:34.916Z,13.30
2023-05-07T03:40:01.572Z,13.13
2023-05-07T03:42:29.562Z,13.43
2023-05-07T03:44:56.195Z,13.61
2023-05-07T03:47:22.911Z,13.73
2023-05-07T03:49:50.324Z,13.79
2023-05-07T03:52:17.189Z,13.98
2023-05-07T03:54:43.826Z,13.69
2023-05-07T03:57:10.467Z,13.61
2023-05-07T03:59:37.154Z,13.83
2023-05-07T04:02:05.614Z,13.71
2023-05-07T04:04:34.037Z,14.01
2023-05-07T04:07:01.522Z,13.69
2023-05-07T04:09:28.174Z,13.29
2023-05-07T04:11:54.852Z,13.11
2023-05-07T04:14:21.483Z,13.62
2023-05-07T04:16:48.196Z,13.87
2023-05-07T04:19:14.923Z,14.06
2023-05-07T04:21:41.684Z,14.18
2023-05-07T04:24:08.482Z,14.37
2023-05-07T04:26:35.168Z,14.35
2023-05-07T04:29:01.976Z,14.41
2023-05-07T04:31:28.646Z,14.07
2023-05-07T04:33:55.562Z,13.83
2023-05-07T04:36:22.522Z,13.61
2023-05-07T04:38:49.138Z,13.59
2023-05-07T04:41:16.200Z,13.20
2023-05-07T04:43:42.821Z,13.29
2023-05-07T04:46:09.577Z,13.43
2023-05-07T04:48:36.301Z,14.21
2023-05-07T04:51:03.450Z,14.46
2023-05-07T04:53:30.074Z,13.94
2023-05-07T04:56:00.555Z,13.71
2023-05-07T04:58:27.282Z,13.38
2023-05-07T05:00:53.947Z,13.83
2023-05-07T05:03:20.614Z,14.32
2023-05-07T05:05:47.364Z,14.49
2023-05-07T05:08:14.017Z,14.79
2023-05-07T05:10:42.687Z,14.54
2023-05-07T05:13:09.302Z,14.58
2023-05-07T05:15:36.237Z,14.27
2023-05-07T05:18:02.985Z,14.65
2023-05-07T05:20:29.620Z,14.85
2023-05-07T05:22:56.236Z,14.62
2023-05-07T05:25:22.905Z,14.79
2023-05-07T05:27:49.645Z,14.32
2023-05-07T05:30:16.224Z,14.27
2023-05-07T05:32:42.882Z,14.05
2023-05-07T05:35:09.800Z,14.42
2023-05-07T05:37:36.528Z,14.72
2023-05-07T05:40:03.367Z,14.90
2023-05-07T05:42:29.985Z,15.14
2023-05-07T05:44:56.632Z,15.24
2023-05-07T05:47:24.115Z,15.23
2023-05-07T05:49:50.846Z,15.76
2023-05-07T05:52:18.421Z,15.84
2023-05-07T05:54:45.007Z,15.37
2023-05-07T05:57:11.851Z,14.88
2023-05-07T05:59:38.556Z,15.27
2023-05-07T06:02:05.215Z,15.58
2023-05-07T06:04:31.922Z,16.12
2023-05-07T06:06:58.626Z,15.84
2023-05-07T06:09:25.244Z,15.97
2023-05-07T06:11:52.126Z,16.01
2023-05-07T06:14:18.787Z,15.85
2023-05-07T06:16:45.900Z,16.12
2023-05-07T06:19:12.572Z,15.78
2023-05-07T06:21:40.348Z,15.68
2023-05-07T06:24:07.350Z,15.77
2023-05-07T06:26:33.996Z,15.17
2023-05-07T06:29:00.680Z,15.93
2023-05-07T06:31:32.071Z,16.29
2023-05-07T06:33:59.987Z,16.29
2023-05-07T06:36:27.500Z,16.58
2023-05-07T06:38:54.198Z,16.41
2023-05-07T06:41:21.638Z,16.25
2023-05-07T06:43:48.248Z,16.49
2023-05-07T06:46:14.936Z,16.87
2023-05-07T06:48:41.578Z,17.34
2023-05-07T06:51:08.277Z,16.95
2023-05-07T06:53:36.542Z,17.13
2023-05-07T06:56:03.287Z,17.12
2023-05-07T06:58:31.169Z,17.42
2023-05-07T07:00:57.790Z,17.36
2023-05-07T07:03:24.494Z,16.60
2023-05-07T07:05:55.133Z,16.81
2023-05-07T07:08:23.018Z,17.13
2023-05-07T07:10:49.694Z,16.48
2023-05-07T07:13:16.663Z,17.29
2023-05-07T07:15:44.620Z,17.61
2023-05-07T07:18:11.372Z,17.78
2023-05-07T07:20:38.124Z,17.83
2023-05-07T07:23:04.820Z,17.81
2023-05-07T07:25:31.695Z,17.34
2023-05-07T07:27:58.616Z,17.79
2023-05-07T07:30:27.222Z,18.17
2023-05-07T07:32:54.262Z,17.23
2023-05-07T07:35:20.938Z,18.03
2023-05-07T07:37:49.311Z,18.39
2023-05-07T07:40:15.987Z,17.84
2023-05-07T07:42:42.612Z,17.84
2023-05-07T07:45:09.671Z,17.99
2023-05-07T07:47:36.386Z,18.45
2023-05-07T07:50:03.085Z,18.00
2023-05-07T07:52:29.796Z,18.52
2023-05-07T07:54:56.405Z,18.49
2023-05-07T07:57:23.063Z,19.04
2023-05-07T07:59:50.187Z,18.89
2023-05-07T08:02:17.276Z,18.93
2023-05-07T08:04:46.656Z,18.59
2023-05-07T08:07:14.173Z,18.58
2023-05-07T08:09:41.864Z,18.91
2023-05-07T08:12:08.691Z,18.35
2023-05-07T08:14:37.487Z,19.03
2023-05-07T08:17:04.422Z,18.77
2023-05-07T08:19:31.117Z,19.45
2023-05-07T08:21:57.786Z,19.10
2023-05-07T08:24:24.445Z,19.04
2023-05-07T08:26:51.101Z,19.48
2023-05-07T08:29:17.768Z,19.92
2023-05-07T08:31:44.377Z,20.02
2023-05-07T08:34:11.085Z,19.90
2023-05-07T08:36:37.729Z,19.87
2023-05-07T08:39:04.528Z,19.06
2023-05-07T08:41:31.748Z,19.71
2023-05-07T08:44:02.186Z,19.63
2023-05-07T08:46:33.334Z,19.60
2023-05-07T08:49:00.154Z,19.79
2023-05-07T08:51:26.864Z,19.80
2023-05-07T08:53:53.539Z,19.91
2023-05-07T08:56:22.374Z,20.00
2023-05-07T08:58:49.778Z,20.32
2023-05-07T09:01:17.991Z,20.43
2023-05-07T09:03:47.995Z,20.34
2023-05-07T09:06:15.218Z,20.32
2023-05-07T09:08:41.843Z,20.43
2023-05-07T09:11:08.550Z,20.70
2023-05-07T09:13:35.334Z,20.60
2023-05-07T09:16:12.739Z,20.72
2023-05-07T09:18:43.457Z,20.50
2023-05-07T09:21:17.218Z,20.61
2023-05-07T09:23:44.071Z,20.58
2023-05-07T09:26:12.959Z,20.59
2023-05-07T09:28:43.169Z,20.66
2023-05-07T09:31:11.250Z,21.12
2023-05-07T09:33:38.570Z,21.58
2023-05-07T09:36:10.221Z,21.10
2023-05-07T09:38:38.323Z,20.99
2023-05-07T09:41:13.214Z,21.62
2023-05-07T09:43:41.458Z,21.75
2023-05-07T09:46:15.857Z,22.03
2023-05-07T09:48:44.739Z,21.63
2023-05-07T09:51:19.260Z,21.68
2023-05-07T09:53:47.271Z,21.54
2023-05-07T09:56:16.347Z,21.49
2023-05-07T09:58:44.365Z,21.49
2023-05-07T10:01:13.115Z,21.63
2023-05-07T10:03:43.590Z,22.26
2023-05-07T10:06:11.710Z,21.63
2023-05-07T10:08:38.861Z,21.14
2023-05-07T10:11:06.998Z,21.25
2023-05-07T10:13:37.637Z,21.73
2023-05-07T10:16:07.652Z,21.67
2023-05-07T10:18:34.920Z,21.60
2023-05-07T10:21:49.288Z,21.95
2023-05-07T10:24:23.242Z,22.17
2023-05-07T10:26:53.625Z,21.90
2023-05-07T10:29:31.098Z,21.84
2023-05-07T10:32:22.880Z,20.94
2023-05-07T10:34:54.542Z,21.26
2023-05-07T10:37:21.294Z,21.37
2023-05-07T10:39:48.319Z,21.45
2023-05-07T10:42:15.923Z,21.55
2023-05-07T10:44:42.555Z,21.54
2023-05-07T10:47:14.375Z,21.96
2023-05-07T10:49:46.885Z,22.10
2023-05-07T10:52:18.820Z,21.71
2023-05-07T10:54:46.530Z,21.82
2023-05-07T10:57:36.844Z,21.39
2023-05-07T11:00:39.028Z,22.07
2023-05-07T11:03:07.940Z,22.66
2023-05-07T11:05:37.595Z,22.89
2023-05-07T11:08:06.409Z,23.03
2023-05-07T11:10:51.435Z,23.09
2023-05-07T11:13:19.147Z,23.21
2023-05-07T11:15:49.623Z,22.70
2023-05-07T11:18:18.104Z,22.86
2023-05-07T11:20:59.104Z,22.99
2023-05-07T11:23:34.638Z,22.92
2023-05-07T11:26:12.315Z,22.46
2023-05-07T11:28:40.340Z,22.70
2023-05-07T11:31:07.580Z,22.94
2023-05-07T11:33:35.569Z,22.86
2023-05-07T11:36:04.620Z,23.06
2023-05-07T11:38:35.805Z,22.69
2023-05-07T11:41:03.527Z,22.42
2023-05-07T11:43:30.155Z,22.30
2023-05-07T11:46:06.727Z,22.24
2023-05-07T11:48:33.505Z,22.42
2023-05-07T11:51:00.046Z,22.27
2023-05-07T11:53:27.883Z,23.04
2023-05-07T11:55:56.521Z,23.20
2023-05-07T11:58:25.010Z,22.51
2023-05-07T12:00:52.601Z,22.05
2023-05-07T12:03:19.566Z,23.13
2023-05-07T12:05:49.293Z,23.09
2023-05-07T12:08:19.868Z,23.17
2023-05-07T12:10:51.254Z,22.45
2023-05-07T12:13:19.355Z,22.75
2023-05-07T12:15:46.399Z,23.07
2023-05-07T12:18:13.742Z,23.60
2023-05-07T12:20:40.980Z,23.77
2023-05-07T12:23:08.117Z,23.89
2023-05-07T12:25:39.211Z,23.65
2023-05-07T12:28:07.087Z,23.83
2023-05-07T12:30:38.298Z,23.29
2023-05-07T12:33:04.953Z,23.63
2023-05-07T12:35:33.145Z,23.89
2023-05-07T12:38:05.153Z,23.71
2023-05-07T12:40:54.498Z,23.88
2023-05-07T12:43:28.861Z,23.86
2023-05-07T12:45:58.238Z,23.50
2023-05-07T12:48:27.981Z,23.16
2023-05-07T12:50:56.006Z,22.52
2023-05-07T12:53:25.740Z,22.93
2023-05-07T12:55:54.713Z,23.38
2023-05-07T12:58:29.655Z,23.09
2023-05-07T13:01:00.899Z,22.85
2023-05-07T13:03:30.867Z,23.23
2023-05-07T13:06:00.618Z,23.09
2023-05-07T13:08:30.371Z,23.40
2023-05-07T13:10:59.202Z,23.79
2023-05-07T13:13:26.290Z,23.85
2023-05-07T13:15:53.130Z,23.62
2023-05-07T13:18:19.858Z,23.89
2023-05-07T13:20:46.731Z,24.26
2023-05-07T13:23:13.533Z,24.35
2023-05-07T13:25:40.212Z,23.88
2023-05-07T13:28:11.218Z,23.61
2023-05-07T13:30:38.468Z,23.82
2023-05-07T13:33:05.214Z,23.91
2023-05-07T13:35:31.964Z,23.55
2023-05-07T13:37:58.671Z,23.51
2023-05-07T13:40:25.996Z,23.84
2023-05-07T13:42:52.962Z,24.19
2023-05-07T13:45:19.920Z,24.39
2023-05-07T13:47:47.688Z,24.22
2023-05-07T13:50:17.180Z,24.21
2023-05-07T13:52:51.469Z,24.28
2023-05-07T13:55:19.161Z,24.35
2023-05-07T13:57:46.337Z,23.94
2023-05-07T14:00:14.063Z,24.31
2023-05-07T14:05:08.648Z,24.16
2023-05-07T14:07:35.593Z,23.36
2023-05-07T14:10:02.404Z,24.04
2023-05-07T14:12:29.044Z,24.49
2023-05-07T14:14:55.965Z,24.60
2023-05-07T14:17:24.218Z,24.86
2023-05-07T14:19:51.052Z,24.41
2023-05-07T14:22:17.687Z,24.79
2023-05-07T14:24:46.724Z,24.82
2023-05-07T14:27:15.421Z,24.67
2023-05-07T14:29:43.601Z,25.16
2023-05-07T14:32:10.233Z,25.19
2023-05-07T14:34:36.896Z,24.52
2023-05-07T14:37:04.323Z,24.76
2023-05-07T14:39:31.032Z,25.17
2023-05-07T14:41:58.461Z,24.66
2023-05-07T14:44:25.103Z,25.07
2023-05-07T14:46:52.225Z,25.18
2023-05-07T14:49:18.822Z,25.34
2023-05-07T14:51:46.569Z,25.56
2023-05-07T14:54:14.626Z,25.42
2023-05-07T14:56:42.082Z,25.59
2023-05-07T14:59:09.395Z,25.69
2023-05-07T15:01:37.276Z,25.56
2023-05-07T15:04:07.293Z,25.64
2023-05-07T15:06:34.479Z,25.69
2023-05-07T15:09:01.156Z,25.22
2023-05-07T15:11:27.851Z,24.96
2023-05-07T15:13:54.415Z,24.81
2023-05-07T15:16:21.461Z,24.61
2023-05-07T15:18:48.225Z,24.89
2023-05-07T15:21:14.936Z,25.09
2023-05-07T15:23:42.460Z,25.06
2023-05-07T15:26:09.284Z,24.28
2023-05-07T15:28:36.104Z,24.28
2023-05-07T15:31:02.888Z,23.63
2023-05-07T15:33:29.574Z,23.55
2023-05-07T15:35:59.817Z,24.12
2023-05-07T15:38:27.238Z,24.49
2023-05-07T15:40:54.124Z,24.25
2023-05-07T15:43:20.836Z,24.74
2023-05-07T15:45:47.503Z,24.51
2023-05-07T15:48:14.175Z,24.72
2023-05-07T15:50:40.845Z,24.52
2023-05-07T15:53:09.083Z,24.66
2023-05-07T15:55:35.864Z,24.76
2023-05-07T15:58:04.681Z,24.71
2023-05-07T16:00:31.244Z,24.64
2023-05-07T16:02:58.085Z,24.74
2023-05-07T16:05:25.008Z,24.68
2023-05-07T16:07:51.684Z,24.61
2023-05-07T16:10:18.588Z,24.53
2023-05-07T16:12:45.261Z,24.53
2023-05-07T16:15:12.482Z,24.20
2023-05-07T16:17:39.432Z,24.43
2023-05-07T16:20:06.717Z,24.38
2023-05-07T16:22:33.431Z,24.55
2023-05-07T16:25:02.051Z,24.42
2023-05-07T16:27:28.632Z,24.19
2023-05-07T16:29:55.230Z,24.09
2023-05-07T16:32:21.849Z,24.26
2023-05-07T16:34:48.611Z,24.31
2023-05-07T16:37:15.247Z,24.14
2023-05-07T16:39:41.828Z,24.15
2023-05-07T16:42:08.434Z,24.01
2023-05-07T16:44:35.022Z,23.68
2023-05-07T16:47:01.911Z,23.56
2023-05-07T16:49:28.505Z,23.42
2023-05-07T16:51:55.136Z,22.99
2023-05-07T16:54:22.011Z,22.69
2023-05-07T16:56:48.808Z,22.82
2023-05-07T16:59:15.498Z,22.50
2023-05-07T17:01:42.886Z,23.00
2023-05-07T17:04:09.851Z,22.20
2023-05-07T17:06:36.697Z,22.63
2023-05-07T17:09:03.671Z,22.86
2023-05-07T17:11:31.788Z,22.44
2023-05-07T17:13:58.478Z,22.55
2023-05-07T17:16:25.408Z,22.62
2023-05-07T17:18:52.389Z,22.80
2023-05-07T17:21:19.178Z,22.80
2023-05-07T17:23:45.809Z,22.87
2023-05-07T17:26:15.414Z,22.49
2023-05-07T17:28:42.339Z,22.52
2023-05-07T17:31:09.037Z,22.53
2023-05-07T17:33:36.592Z,22.42
2023-05-07T17:36:03.462Z,22.36
2023-05-07T17:38:31.488Z,22.29
2023-05-07T17:40:58.700Z,22.24
2023-05-07T17:43:25.377Z,22.15
2023-05-07T17:45:52.144Z,22.26
2023-05-07T17:48:19.098Z,22.13
2023-05-07T17:50:45.750Z,22.09
2023-05-07T17:53:12.556Z,22.08
2023-05-07T17:55:45.965Z,21.94
2023-05-07T17:58:12.919Z,21.92
2023-05-07T18:00:39.554Z,21.87
2023-05-07T18:03:06.404Z,21.93
2023-05-07T18:05:36.755Z,21.64
2023-05-07T18:08:03.676Z,21.79
2023-05-07T18:10:30.349Z,21.60
2023-05-07T18:12:57.123Z,21.49
2023-05-07T18:15:24.014Z,21.33
2023-05-07T18:17:50.773Z,21.34
2023-05-07T18:20:17.606Z,21.24
2023-05-07T18:22:44.188Z,21.21
2023-05-07T18:25:10.860Z,21.38
2023-05-07T18:27:37.439Z,20.93
2023-05-07T18:30:04.414Z,20.86
2023-05-07T18:32:31.058Z,20.72
2023-05-07T18:34:57.781Z,20.70
2023-05-07T18:37:26.108Z,20.96
2023-05-07T18:39:53.507Z,21.07
2023-05-07T18:42:20.240Z,20.89
2023-05-07T18:44:46.952Z,20.69
2023-05-07T18:47:13.942Z,20.70
2023-05-07T18:49:40.664Z,20.74
2023-05-07T18:52:07.262Z,20.71
2023-05-07T18:54:33.972Z,20.67
2023-05-07T18:57:00.632Z,20.57
2023-05-07T18:59:27.315Z,20.65
2023-05-07T19:01:53.992Z,20.54
2023-05-07T19:04:20.898Z,20.34
2023-05-07T19:06:47.632Z,20.28
2023-05-07T19:09:14.653Z,20.30
2023-05-07T19:11:41.460Z,20.35
2023-05-07T19:14:08.257Z,20.13
2023-05-07T19:16:35.123Z,20.13
2023-05-07T19:19:01.880Z,20.23
2023-05-07T19:21:28.762Z,20.19
2023-05-07T19:23:57.429Z,20.01
2023-05-07T19:26:24.532Z,20.02
2023-05-07T19:29:06.526Z,19.70
2023-05-07T19:31:38.739Z,19.86
2023-05-07T19:34:05.506Z,19.96
2023-05-07T19:36:34.351Z,20.02
2023-05-07T19:39:02.063Z,19.90
2023-05-07T19:41:29.212Z,19.70
2023-05-07T19:43:55.998Z,19.50
2023-05-07T19:46:22.750Z,19.52
2023-05-07T19:48:49.513Z,19.66
2023-05-07T19:51:16.162Z,19.70
2023-05-07T19:53:44.919Z,19.75
2023-05-07T19:56:12.677Z,19.73
2023-05-07T19:58:39.483Z,19.67
2023-05-07T20:01:06.807Z,19.61
2023-05-07T20:03:34.526Z,19.61
2023-05-07T20:06:01.447Z,19.59
2023-05-07T20:08:28.641Z,19.65
2023-05-07T20:10:58.190Z,19.53
2023-05-07T20:13:25.001Z,19.54
2023-05-07T20:15:51.663Z,19.56
2023-05-07T20:18:18.353Z,19.59
2023-05-07T20:20:45.463Z,19.44
2023-05-07T20:23:12.128Z,19.24
2023-05-07T20:25:41.588Z,19.29
2023-05-07T20:28:08.196Z,19.42
2023-05-07T20:30:34.937Z,19.38
2023-05-07T20:33:03.970Z,19.28
2023-05-07T20:35:32.249Z,19.28
2023-05-07T20:37:58.957Z,19.28
2023-05-07T20:40:25.668Z,18.92
2023-05-07T20:42:52.273Z,18.52
2023-05-07T20:45:19.169Z,18.22
2023-05-07T20:47:45.863Z,18.19
2023-05-07T20:50:12.858Z,18.46
2023-05-07T20:52:39.975Z,18.65
2023-05-07T20:55:07.211Z,18.74
2023-05-07T20:57:34.234Z,18.86
2023-05-07T21:00:00.869Z,18.91
2023-05-07T21:02:27.523Z,18.91
2023-05-07T21:04:54.469Z,18.93
2023-05-07T21:07:21.049Z,18.96
2023-05-07T21:09:47.645Z,19.04
2023-05-07T21:12:14.319Z,18.87
2023-05-07T21:14:41.099Z,18.53
2023-05-07T21:17:08.212Z,18.56
2023-05-07T21:19:35.083Z,18.71
2023-05-07T21:22:01.733Z,18.81
2023-05-07T21:24:28.420Z,18.77
2023-05-07T21:26:56.176Z,18.72
2023-05-07T21:29:23.652Z,18.73
2023-05-07T21:31:50.340Z,18.84
2023-05-07T21:34:17.021Z,18.91
2023-05-07T21:36:43.904Z,18.82
2023-05-07T21:39:11.060Z,18.66
2023-05-07T21:41:37.892Z,18.49
2023-05-07T21:44:05.113Z,18.22
2023-05-07T21:46:31.778Z,18.39
2023-05-07T21:48:58.438Z,18.44
2023-05-07T21:51:25.151Z,18.44
2023-05-07T21:53:51.836Z,18.38
2023-05-07T21:56:18.621Z,18.34
2023-05-07T21:58:45.296Z,18.29
2023-05-07T22:01:13.043Z,18.37
2023-05-07T22:03:41.208Z,18.16
2023-05-07T22:06:08.003Z,18.17
2023-05-07T22:08:34.705Z,17.93
2023-05-07T22:11:01.389Z,17.73
2023-05-07T22:13:28.338Z,17.75
2023-05-07T22:15:58.091Z,17.87
2023-05-07T22:18:26.100Z,18.26
2023-05-07T22:20:52.958Z,17.86
2023-05-07T22:23:19.676Z,17.49
2023-05-07T22:25:46.431Z,17.57
2023-05-07T22:28:13.109Z,17.12
2023-05-07T22:30:40.207Z,17.31
2023-05-07T22:33:07.059Z,17.12
2023-05-07T22:35:33.800Z,17.04
2023-05-07T22:38:00.495Z,17.30
2023-05-07T22:40:27.388Z,17.55
2023-05-07T22:42:54.012Z,17.58
2023-05-07T22:45:20.844Z,17.45
2023-05-07T22:47:48.407Z,17.61
2023-05-07T22:50:15.518Z,17.33
2023-05-07T22:52:42.226Z,17.38
2023-05-07T22:55:09.093Z,17.27
2023-05-07T22:57:35.799Z,17.29
2023-05-07T23:00:02.661Z,17.31
2023-05-07T23:02:29.620Z,17.33
2023-05-07T23:04:59.944Z,17.34
2023-05-07T23:07:27.087Z,17.44
2023-05-07T23:09:53.876Z,17.53
2023-05-07T23:12:20.539Z,17.50
2023-05-07T23:14:47.285Z,17.54
2023-05-07T23:17:14.097Z,17.37
2023-05-07T23:19:41.055Z,17.11
2023-05-07T23:22:07.940Z,17.35
2023-05-07T23:24:34.909Z,17.23
2023-05-07T23:27:05.622Z,17.17
2023-05-07T23:29:32.882Z,16.77
2023-05-07T23:31:59.820Z,16.90
2023-05-07T23:34:26.926Z,17.09
2023-05-07T23:36:54.039Z,17.14
2023-05-07T23:39:20.933Z,17.40
2023-05-07T23:41:47.560Z,17.12
2023-05-07T23:44:16.545Z,17.09
2023-05-07T23:46:44.582Z,17.01
2023-05-07T23:49:11.559Z,17.19
2023-05-07T23:51:38.299Z,17.30
2023-05-07T23:54:05.246Z,17.26
2023-05-07T23:56:31.974Z,17.18
2023-05-07T23:58:58.669Z,17.15
